createdAt,value
2017-07-06T00:00:44.491Z,0
2017-07-06T00:01:54.792Z,0
2017-07-06T00:03:04.738Z,0
2017-07-06T00:04:14.373Z,0
2017-07-06T00:05:24.905Z,0
2017-07-06T00:06:34.859Z,0
2017-07-06T00:07:45.121Z,0
2017-07-06T00:08:55.388Z,0
2017-07-06T00:10:05.666Z,0
2017-07-06T00:11:15.912Z,0
2017-07-06T00:12:26.176Z,0
2017-07-06T00:13:36.130Z,0
2017-07-06T00:14:46.399Z,0
2017-07-06T00:15:56.689Z,0
2017-07-06T00:17:07.209Z,0
2017-07-06T00:18:17.171Z,0
2017-07-06T00:19:27.122Z,0
2017-07-06T00:20:37.394Z,0
2017-07-06T00:21:47.678Z,0
2017-07-06T00:22:57.559Z,0
2017-07-06T00:24:07.817Z,0
2017-07-06T00:25:17.128Z,0
2017-07-06T00:26:27.404Z,0
2017-07-06T00:27:37.697Z,0
2017-07-06T00:28:47.953Z,0
2017-07-06T00:29:58.227Z,0
2017-07-06T00:31:08.173Z,0
2017-07-06T00:32:17.803Z,0
2017-07-06T00:33:27.755Z,0
2017-07-06T00:34:37.955Z,0
2017-07-06T00:35:48.212Z,0
2017-07-06T00:36:57.850Z,0
2017-07-06T00:38:07.810Z,0
2017-07-06T00:39:17.769Z,0
2017-07-06T00:40:28.290Z,0
2017-07-06T00:41:38.234Z,0
2017-07-06T00:42:48.703Z,0
2017-07-06T00:43:58.336Z,0
2017-07-06T00:45:08.280Z,0
2017-07-06T00:46:17.849Z,0
2017-07-06T00:47:28.124Z,0
2017-07-06T00:48:38.380Z,0
2017-07-06T00:49:48.337Z,0
2017-07-06T00:50:58.283Z,0
2017-07-06T00:52:08.160Z,0
2017-07-06T00:53:18.429Z,0
2017-07-06T00:54:28.367Z,0
2017-07-06T00:55:38.637Z,0
2017-07-06T00:56:48.905Z,0
2017-07-06T00:57:59.435Z,0
2017-07-06T00:59:09.371Z,0
2017-07-06T01:00:19.336Z,0
2017-07-06T01:01:29.281Z,0
2017-07-06T01:02:39.227Z,0
2017-07-06T01:03:49.741Z,0
2017-07-06T01:05:00.015Z,0
2017-07-06T01:06:09.974Z,0
2017-07-06T01:07:19.930Z,0
2017-07-06T01:08:29.877Z,0
2017-07-06T01:09:40.398Z,0
2017-07-06T01:10:50.668Z,0
2017-07-06T01:12:00.599Z,0
2017-07-06T01:13:10.859Z,0
2017-07-06T01:14:21.122Z,0
2017-07-06T01:15:31.627Z,0
2017-07-06T01:16:41.593Z,0
2017-07-06T01:17:51.545Z,0
2017-07-06T01:19:01.171Z,0
2017-07-06T01:20:11.123Z,0
2017-07-06T01:21:21.321Z,0
2017-07-06T01:22:31.592Z,0
2017-07-06T01:23:41.867Z,0
2017-07-06T01:24:52.124Z,0
2017-07-06T01:26:01.769Z,0
2017-07-06T01:27:12.289Z,0
2017-07-06T01:28:22.552Z,0
2017-07-06T01:29:32.493Z,0
2017-07-06T01:30:42.455Z,0
2017-07-06T01:31:52.420Z,0
2017-07-06T01:33:02.623Z,0
2017-07-06T01:34:12.867Z,0
2017-07-06T01:35:22.824Z,0
2017-07-06T01:36:33.087Z,0
2017-07-06T01:37:43.352Z,0
2017-07-06T01:38:53.885Z,0
2017-07-06T01:40:04.153Z,0
2017-07-06T01:41:13.458Z,0
2017-07-06T01:42:23.399Z,0
2017-07-06T01:43:33.344Z,0
2017-07-06T01:44:43.865Z,0
2017-07-06T01:45:54.147Z,0
2017-07-06T01:47:04.099Z,0
2017-07-06T01:48:14.375Z,0
2017-07-06T01:49:24.639Z,0
2017-07-06T01:50:34.840Z,0
2017-07-06T01:51:44.785Z,0
2017-07-06T01:52:54.724Z,0
2017-07-06T01:54:04.357Z,0
2017-07-06T01:55:13.998Z,0
2017-07-06T01:56:24.515Z,0
2017-07-06T01:57:34.781Z,0
2017-07-06T01:58:44.421Z,0
2017-07-06T01:59:54.684Z,0
2017-07-06T02:01:04.632Z,0
2017-07-06T02:02:14.509Z,0
2017-07-06T02:03:24.783Z,0
2017-07-06T02:04:34.716Z,0
2017-07-06T02:05:44.984Z,0
2017-07-06T02:06:55.255Z,0
2017-07-06T02:08:05.765Z,0
2017-07-06T02:09:16.027Z,0
2017-07-06T02:10:25.971Z,0
2017-07-06T02:11:36.233Z,0
2017-07-06T02:12:46.500Z,0
2017-07-06T02:13:56.698Z,0
2017-07-06T02:15:06.013Z,0
2017-07-06T02:16:15.650Z,0
2017-07-06T02:17:25.631Z,0
2017-07-06T02:18:35.901Z,0
2017-07-06T02:19:46.468Z,0
2017-07-06T02:20:56.758Z,0
2017-07-06T02:22:07.011Z,0
2017-07-06T02:23:17.280Z,0
2017-07-06T02:24:27.228Z,0
2017-07-06T02:25:37.438Z,0
2017-07-06T02:26:47.699Z,0
2017-07-06T02:27:57.636Z,0
2017-07-06T02:29:07.908Z,0
2017-07-06T02:30:17.858Z,0
2017-07-06T02:31:28.057Z,0
2017-07-06T02:32:37.692Z,0
2017-07-06T02:33:47.322Z,0
2017-07-06T02:34:57.274Z,0
2017-07-06T02:36:07.527Z,0
2017-07-06T02:37:18.091Z,0
2017-07-06T02:38:27.738Z,0
2017-07-06T02:39:37.371Z,0
2017-07-06T02:40:47.630Z,0
2017-07-06T02:41:57.886Z,5
2017-07-06T02:43:08.064Z,5
2017-07-06T02:44:18.351Z,5
2017-07-06T02:45:28.309Z,5
2017-07-06T02:46:38.579Z,5
2017-07-06T02:47:48.207Z,5
2017-07-06T02:48:58.718Z,10
2017-07-06T02:50:08.676Z,10
2017-07-06T02:51:19.014Z,10
2017-07-06T02:52:28.949Z,10
2017-07-06T02:53:38.886Z,10
2017-07-06T02:54:49.394Z,15
2017-07-06T02:55:59.661Z,15
2017-07-06T02:57:09.913Z,15
2017-07-06T02:58:19.870Z,15
2017-07-06T02:59:29.818Z,20
2017-07-06T03:00:40.349Z,20
2017-07-06T03:01:50.662Z,20
2017-07-06T03:03:00.599Z,25
2017-07-06T03:04:10.543Z,25
2017-07-06T03:05:20.496Z,25
2017-07-06T03:06:31.025Z,30
2017-07-06T03:07:40.978Z,30
2017-07-06T03:08:51.252Z,30
2017-07-06T03:10:01.521Z,35
2017-07-06T03:11:11.785Z,35
2017-07-06T03:12:21.349Z,35
2017-07-06T03:13:31.286Z,40
2017-07-06T03:14:41.566Z,40
2017-07-06T03:15:51.832Z,40
2017-07-06T03:17:01.465Z,40
2017-07-06T03:18:11.981Z,40
2017-07-06T03:19:22.244Z,40
2017-07-06T03:20:32.495Z,40
2017-07-06T03:21:42.497Z,40
2017-07-06T03:22:52.765Z,40
2017-07-06T03:24:03.269Z,40
2017-07-06T03:25:13.229Z,40
2017-07-06T03:26:23.492Z,40
2017-07-06T03:27:33.769Z,40
2017-07-06T03:28:44.045Z,45
2017-07-06T03:29:54.232Z,45
2017-07-06T03:31:04.497Z,50
2017-07-06T03:32:14.452Z,50
2017-07-06T03:33:24.737Z,55
2017-07-06T03:34:35.017Z,55
2017-07-06T03:35:45.195Z,60
2017-07-06T03:36:55.465Z,60
2017-07-06T03:38:05.418Z,65
2017-07-06T03:39:15.685Z,70
2017-07-06T03:40:25.962Z,70
2017-07-06T03:41:36.484Z,75
2017-07-06T03:42:46.446Z,75
2017-07-06T03:43:56.402Z,80
2017-07-06T03:45:06.036Z,85
2017-07-06T03:46:15.680Z,85
2017-07-06T03:47:26.191Z,85
2017-07-06T03:48:36.142Z,90
2017-07-06T03:49:46.403Z,95
2017-07-06T03:50:56.039Z,100
2017-07-06T03:52:06.001Z,105
2017-07-06T03:53:16.550Z,105
2017-07-06T03:54:25.856Z,100
2017-07-06T03:55:35.794Z,100
2017-07-06T03:56:45.738Z,95
2017-07-06T03:57:56.001Z,90
2017-07-06T03:59:06.216Z,90
2017-07-06T04:00:16.493Z,95
2017-07-06T04:01:26.767Z,105
2017-07-06T04:02:36.708Z,110
2017-07-06T04:03:46.655Z,120
2017-07-06T04:04:56.542Z,125
2017-07-06T04:06:06.174Z,125
2017-07-06T04:07:15.815Z,125
2017-07-06T04:08:25.758Z,125
2017-07-06T04:09:36.029Z,125
2017-07-06T04:10:46.554Z,130
2017-07-06T04:11:56.823Z,135
2017-07-06T04:13:06.465Z,145
2017-07-06T04:14:16.726Z,145
2017-07-06T04:15:26.669Z,145
2017-07-06T04:16:36.889Z,150
2017-07-06T04:17:46.861Z,160
2017-07-06T04:18:56.817Z,160
2017-07-06T04:20:06.761Z,155
2017-07-06T04:21:16.699Z,160
2017-07-06T04:22:27.257Z,165
2017-07-06T04:23:37.206Z,175
2017-07-06T04:24:46.847Z,175
2017-07-06T04:25:56.804Z,180
2017-07-06T04:27:06.776Z,185
2017-07-06T04:28:16.668Z,195
2017-07-06T04:29:26.933Z,195
2017-07-06T04:30:36.880Z,190
2017-07-06T04:31:46.831Z,195
2017-07-06T04:32:57.094Z,195
2017-07-06T04:34:07.614Z,200
2017-07-06T04:35:17.878Z,195
2017-07-06T04:36:28.164Z,200
2017-07-06T04:37:38.113Z,200
2017-07-06T04:38:48.058Z,205
2017-07-06T04:39:58.566Z,205
2017-07-06T04:41:08.849Z,210
2017-07-06T04:42:18.796Z,210
2017-07-06T04:43:28.427Z,220
2017-07-06T04:44:38.394Z,220
2017-07-06T04:45:47.954Z,210
2017-07-06T04:46:58.216Z,210
2017-07-06T04:48:08.462Z,205
2017-07-06T04:49:18.481Z,200
2017-07-06T04:50:28.438Z,200
2017-07-06T04:51:39.462Z,200
2017-07-06T04:52:49.405Z,200
2017-07-06T04:53:59.348Z,200
2017-07-06T04:55:09.280Z,200
2017-07-06T04:56:19.235Z,200
2017-07-06T04:57:29.159Z,205
2017-07-06T04:58:39.111Z,210
2017-07-06T04:59:49.383Z,215
2017-07-06T05:00:59.328Z,215
2017-07-06T05:02:09.269Z,220
2017-07-06T05:03:19.787Z,230
2017-07-06T05:04:30.043Z,240
2017-07-06T05:05:40.006Z,240
2017-07-06T05:06:49.966Z,250
2017-07-06T05:08:00.234Z,260
2017-07-06T05:09:09.811Z,265
2017-07-06T05:10:20.083Z,275
2017-07-06T05:11:30.373Z,285
2017-07-06T05:12:40.645Z,295
2017-07-06T05:13:50.921Z,300
2017-07-06T05:15:01.458Z,300
2017-07-06T05:16:11.096Z,305
2017-07-06T05:17:21.057Z,315
2017-07-06T05:18:30.714Z,320
2017-07-06T05:19:40.368Z,330
2017-07-06T05:20:50.573Z,315
2017-07-06T05:22:00.509Z,310
2017-07-06T05:23:10.454Z,310
2017-07-06T05:24:20.383Z,310
2017-07-06T05:25:30.655Z,315
2017-07-06T05:26:40.864Z,320
2017-07-06T05:27:50.810Z,325
2017-07-06T05:29:01.088Z,335
2017-07-06T05:30:10.426Z,340
2017-07-06T05:31:20.382Z,340
2017-07-06T05:32:30.584Z,345
2017-07-06T05:33:40.851Z,345
2017-07-06T05:34:50.476Z,360
2017-07-06T05:36:00.453Z,355
2017-07-06T05:37:10.400Z,360
2017-07-06T05:38:20.607Z,365
2017-07-06T05:39:30.575Z,370
2017-07-06T05:40:40.513Z,370
2017-07-06T05:41:50.776Z,370
2017-07-06T05:43:00.739Z,365
2017-07-06T05:44:11.266Z,370
2017-07-06T05:45:21.227Z,375
2017-07-06T05:46:30.858Z,385
2017-07-06T05:47:41.126Z,395
2017-07-06T05:48:50.755Z,405
2017-07-06T05:50:00.960Z,420
2017-07-06T05:51:11.232Z,430
2017-07-06T05:52:21.213Z,435
2017-07-06T05:53:31.565Z,435
2017-07-06T05:54:41.836Z,435
2017-07-06T05:55:52.053Z,445
2017-07-06T05:57:02.003Z,445
2017-07-06T05:58:11.979Z,445
2017-07-06T05:59:21.971Z,445
2017-07-06T06:00:32.268Z,445
2017-07-06T06:01:43.024Z,445
2017-07-06T06:02:53.303Z,435
2017-07-06T06:04:03.601Z,435
2017-07-06T06:05:13.884Z,435
2017-07-06T06:06:23.544Z,440
2017-07-06T06:07:34.062Z,450
2017-07-06T06:08:44.359Z,455
2017-07-06T06:09:54.328Z,460
2017-07-06T06:11:04.285Z,465
2017-07-06T06:12:14.546Z,470
2017-07-06T06:13:24.747Z,475
2017-07-06T06:14:35.039Z,480
2017-07-06T06:15:45.326Z,485
2017-07-06T06:16:55.629Z,490
2017-07-06T06:18:05.598Z,495
2017-07-06T06:19:15.837Z,495
2017-07-06T06:20:26.108Z,500
2017-07-06T06:21:36.406Z,505
2017-07-06T06:22:46.682Z,515
2017-07-06T06:23:56.635Z,530
2017-07-06T06:25:07.157Z,525
2017-07-06T06:26:17.455Z,525
2017-07-06T06:27:27.436Z,520
2017-07-06T06:28:37.727Z,510
2017-07-06T06:29:47.370Z,515
2017-07-06T06:30:57.902Z,515
2017-07-06T06:32:08.187Z,505
2017-07-06T06:33:18.164Z,500
2017-07-06T06:34:28.465Z,485
2017-07-06T06:35:38.744Z,475
2017-07-06T06:36:48.977Z,460
2017-07-06T06:37:59.254Z,450
2017-07-06T06:39:09.574Z,440
2017-07-06T06:40:19.855Z,430
2017-07-06T06:41:29.503Z,425
2017-07-06T06:42:39.773Z,420
2017-07-06T06:43:49.425Z,420
2017-07-06T06:44:59.696Z,425
2017-07-06T06:46:09.962Z,430
2017-07-06T06:47:20.509Z,430
2017-07-06T06:48:31.050Z,440
2017-07-06T06:49:41.017Z,445
2017-07-06T06:50:51.294Z,455
2017-07-06T06:52:01.278Z,465
2017-07-06T06:53:11.250Z,465
2017-07-06T06:54:21.481Z,485
2017-07-06T06:55:31.892Z,510
2017-07-06T06:56:42.214Z,525
2017-07-06T06:57:51.858Z,530
2017-07-06T06:59:01.812Z,535
2017-07-06T07:00:12.332Z,545
2017-07-06T07:01:22.608Z,545
2017-07-06T07:02:32.573Z,555
2017-07-06T07:03:42.252Z,595
2017-07-06T07:04:52.526Z,630
2017-07-06T07:06:03.121Z,675
2017-07-06T07:07:13.093Z,680
2017-07-06T07:08:23.405Z,700
2017-07-06T07:09:33.693Z,730
2017-07-06T07:10:43.957Z,730
2017-07-06T07:11:54.562Z,710
2017-07-06T07:13:04.859Z,725
2017-07-06T07:14:15.159Z,730
2017-07-06T07:15:25.124Z,725
2017-07-06T07:16:35.084Z,720
2017-07-06T07:17:45.304Z,705
2017-07-06T07:18:55.261Z,695
2017-07-06T07:20:05.542Z,650
2017-07-06T07:21:15.830Z,640
2017-07-06T07:22:26.111Z,625
2017-07-06T07:23:36.622Z,600
2017-07-06T07:24:46.265Z,595
2017-07-06T07:25:56.560Z,585
2017-07-06T07:27:06.208Z,570
2017-07-06T07:28:16.505Z,560
2017-07-06T07:29:26.746Z,560
2017-07-06T07:30:37.004Z,560
2017-07-06T07:31:47.289Z,550
2017-07-06T07:32:56.925Z,535
2017-07-06T07:34:06.873Z,525
2017-07-06T07:35:16.758Z,525
2017-07-06T07:36:26.728Z,505
2017-07-06T07:37:37.005Z,480
2017-07-06T07:38:46.977Z,480
2017-07-06T07:39:57.267Z,495
2017-07-06T07:41:07.232Z,535
2017-07-06T07:42:17.533Z,545
2017-07-06T07:43:27.812Z,565
2017-07-06T07:44:38.120Z,580
2017-07-06T07:45:48.442Z,610
2017-07-06T07:46:59.007Z,630
2017-07-06T07:48:09.286Z,630
2017-07-06T07:49:19.257Z,630
2017-07-06T07:50:29.552Z,635
2017-07-06T07:51:39.519Z,665
2017-07-06T07:52:49.098Z,705
2017-07-06T07:53:59.387Z,725
2017-07-06T07:55:09.673Z,740
2017-07-06T07:56:19.626Z,755
2017-07-06T07:57:29.258Z,735
2017-07-06T07:58:39.764Z,705
2017-07-06T07:59:50.068Z,670
2017-07-06T08:00:59.718Z,645
2017-07-06T08:02:09.991Z,620
2017-07-06T08:03:19.994Z,600
2017-07-06T08:04:30.597Z,605
2017-07-06T08:05:40.905Z,590
2017-07-06T08:06:50.893Z,580
2017-07-06T08:08:00.851Z,595
2017-07-06T08:09:11.136Z,595
2017-07-06T08:10:21.353Z,600
2017-07-06T08:11:31.064Z,595
2017-07-06T08:12:41.024Z,605
2017-07-06T08:13:51.000Z,610
2017-07-06T08:15:01.276Z,625
2017-07-06T08:16:11.497Z,615
2017-07-06T08:17:21.807Z,595
2017-07-06T08:18:32.082Z,590
2017-07-06T08:19:42.351Z,590
2017-07-06T08:20:52.661Z,600
2017-07-06T08:22:02.923Z,600
2017-07-06T08:23:12.865Z,610
2017-07-06T08:24:23.406Z,620
2017-07-06T08:25:33.372Z,630
2017-07-06T08:26:43.001Z,635
2017-07-06T08:27:53.243Z,640
2017-07-06T08:29:03.527Z,640
2017-07-06T08:30:13.476Z,640
2017-07-06T08:31:23.765Z,655
2017-07-06T08:32:34.055Z,670
2017-07-06T08:33:44.310Z,700
2017-07-06T08:34:54.723Z,705
2017-07-06T08:36:05.427Z,695
2017-07-06T08:37:15.397Z,695
2017-07-06T08:38:25.681Z,775
2017-07-06T08:39:36.231Z,900
2017-07-06T08:40:45.882Z,1040
2017-07-06T08:41:56.171Z,1220
2017-07-06T08:43:06.157Z,1270
2017-07-06T08:44:16.129Z,1340
2017-07-06T08:45:26.347Z,1350
2017-07-06T08:46:36.863Z,1310
2017-07-06T08:47:46.842Z,1215
2017-07-06T08:48:57.141Z,1260
2017-07-06T08:50:07.425Z,1205
2017-07-06T08:51:17.977Z,1375
2017-07-06T08:52:28.256Z,1485
2017-07-06T08:53:38.234Z,1430
2017-07-06T08:54:48.500Z,1465
2017-07-06T08:55:58.480Z,1435
2017-07-06T08:57:08.711Z,1445
2017-07-06T08:58:18.043Z,1565
2017-07-06T08:59:28.023Z,1595
2017-07-06T09:00:38.341Z,1510
2017-07-06T09:01:48.342Z,1560
2017-07-06T09:02:58.925Z,1485
2017-07-06T09:04:09.197Z,1575
2017-07-06T09:05:19.161Z,1740
2017-07-06T09:06:29.457Z,890
2017-07-06T09:07:39.747Z,860
2017-07-06T09:08:49.975Z,925
2017-07-06T09:10:00.257Z,1230
2017-07-06T09:11:09.920Z,945
2017-07-06T09:12:19.599Z,1000
2017-07-06T09:13:29.577Z,1240
2017-07-06T09:14:39.823Z,1980
2017-07-06T09:15:49.792Z,1970
2017-07-06T09:17:00.085Z,1810
2017-07-06T09:18:10.364Z,1025
2017-07-06T09:19:20.316Z,955
2017-07-06T09:20:30.528Z,925
2017-07-06T09:21:40.497Z,1070
2017-07-06T09:22:50.462Z,1365
2017-07-06T09:24:00.426Z,900
2017-07-06T09:25:10.426Z,905
2017-07-06T09:26:20.327Z,940
2017-07-06T09:27:30.293Z,925
2017-07-06T09:28:39.937Z,890
2017-07-06T09:29:49.594Z,835
2017-07-06T09:30:59.557Z,820
2017-07-06T09:32:10.098Z,860
2017-07-06T09:33:20.639Z,890
2017-07-06T09:34:30.951Z,955
2017-07-06T09:35:40.917Z,1035
2017-07-06T09:36:51.194Z,2125
2017-07-06T09:38:01.751Z,2030
2017-07-06T09:39:11.732Z,1930
2017-07-06T09:40:21.689Z,1635
2017-07-06T09:41:31.678Z,1450
2017-07-06T09:42:41.972Z,1110
2017-07-06T09:43:52.215Z,975
2017-07-06T09:45:02.181Z,965
2017-07-06T09:46:12.481Z,1000
2017-07-06T09:47:22.773Z,2035
2017-07-06T09:48:33.083Z,1520
2017-07-06T09:49:43.626Z,2045
2017-07-06T09:50:53.933Z,1890
2017-07-06T09:52:03.892Z,1920
2017-07-06T09:53:14.184Z,1985
2017-07-06T09:54:24.489Z,2010
2017-07-06T09:55:35.041Z,2115
2017-07-06T09:56:45.029Z,2100
2017-07-06T09:57:55.011Z,2280
2017-07-06T09:59:04.657Z,2320
2017-07-06T10:00:14.622Z,1580
2017-07-06T10:01:24.263Z,2395
2017-07-06T10:02:34.574Z,1275
2017-07-06T10:03:44.224Z,1075
2017-07-06T10:04:54.201Z,1000
2017-07-06T10:06:04.489Z,970
2017-07-06T10:07:14.415Z,960
2017-07-06T10:08:24.384Z,975
2017-07-06T10:09:34.381Z,1030
2017-07-06T10:10:44.374Z,1180
2017-07-06T10:11:54.059Z,2535
2017-07-06T10:13:03.940Z,1180
2017-07-06T10:14:13.600Z,1230
2017-07-06T10:15:23.352Z,1060
2017-07-06T10:16:33.682Z,925
2017-07-06T10:17:43.353Z,845
2017-07-06T10:18:53.912Z,830
2017-07-06T10:20:04.230Z,835
2017-07-06T10:21:14.514Z,895
2017-07-06T10:22:24.809Z,960
2017-07-06T10:23:35.093Z,1020
2017-07-06T10:24:45.823Z,1025
2017-07-06T10:25:55.176Z,1425
2017-07-06T10:27:05.140Z,1625
2017-07-06T10:28:15.101Z,2495
2017-07-06T10:29:25.411Z,1755
2017-07-06T10:30:35.364Z,1170
2017-07-06T10:31:45.636Z,2455
2017-07-06T10:32:55.914Z,1200
2017-07-06T10:34:05.884Z,1620
2017-07-06T10:35:15.891Z,1025
2017-07-06T10:36:26.433Z,1300
2017-07-06T10:37:36.409Z,2800
2017-07-06T10:38:46.391Z,2685
2017-07-06T10:39:56.068Z,2110
2017-07-06T10:41:06.363Z,850
2017-07-06T10:42:16.905Z,765
2017-07-06T10:43:26.879Z,685
2017-07-06T10:44:37.175Z,740
2017-07-06T10:45:47.171Z,680
2017-07-06T10:46:57.199Z,670
2017-07-06T10:48:07.718Z,1020
2017-07-06T10:49:17.687Z,795
2017-07-06T10:50:27.672Z,1215
2017-07-06T10:51:38.005Z,850
2017-07-06T10:52:48.305Z,2865
2017-07-06T10:53:58.869Z,1135
2017-07-06T10:55:09.187Z,1395
2017-07-06T10:56:19.510Z,2955
2017-07-06T10:57:29.780Z,3130
2017-07-06T10:58:40.085Z,3200
2017-07-06T10:59:50.323Z,2640
2017-07-06T11:00:59.353Z,3435
2017-07-06T11:02:09.324Z,3300
2017-07-06T11:03:19.300Z,3185
2017-07-06T11:04:29.659Z,3160
2017-07-06T11:05:39.937Z,3185
2017-07-06T11:06:50.251Z,2980
2017-07-06T11:08:00.255Z,1125
2017-07-06T11:09:10.543Z,3135
2017-07-06T11:10:20.535Z,3240
2017-07-06T11:11:31.057Z,1015
2017-07-06T11:12:41.335Z,930
2017-07-06T11:13:50.989Z,925
2017-07-06T11:15:00.959Z,950
2017-07-06T11:16:10.921Z,970
2017-07-06T11:17:21.486Z,1000
2017-07-06T11:18:31.456Z,915
2017-07-06T11:19:41.745Z,970
2017-07-06T11:20:52.024Z,2700
2017-07-06T11:22:02.310Z,1090
2017-07-06T11:23:12.514Z,1130
2017-07-06T11:24:21.861Z,2990
2017-07-06T11:25:31.838Z,1660
2017-07-06T11:26:41.504Z,3080
2017-07-06T11:27:51.785Z,1400
2017-07-06T11:29:02.357Z,840
2017-07-06T11:30:12.340Z,800
2017-07-06T11:31:22.298Z,755
2017-07-06T11:32:32.558Z,715
2017-07-06T11:33:42.865Z,695
2017-07-06T11:34:53.083Z,720
2017-07-06T11:36:03.045Z,740
2017-07-06T11:37:13.011Z,805
2017-07-06T11:38:23.317Z,810
2017-07-06T11:39:33.608Z,915
2017-07-06T11:40:44.165Z,1190
2017-07-06T11:41:54.466Z,3290
2017-07-06T11:43:04.749Z,1405
2017-07-06T11:44:14.731Z,1250
2017-07-06T11:45:25.025Z,875
2017-07-06T11:46:35.586Z,865
2017-07-06T11:47:45.543Z,895
2017-07-06T11:48:55.185Z,840
2017-07-06T11:50:05.154Z,840
2017-07-06T11:51:14.816Z,885
2017-07-06T11:52:24.941Z,1475
2017-07-06T11:53:34.938Z,2435
2017-07-06T11:54:45.220Z,890
2017-07-06T11:55:55.510Z,930
2017-07-06T11:57:05.798Z,1075
2017-07-06T11:58:16.029Z,985
2017-07-06T11:59:26.307Z,995
2017-07-06T12:00:36.288Z,1050
2017-07-06T12:01:45.947Z,1465
2017-07-06T12:02:56.271Z,1020
2017-07-06T12:04:06.572Z,1020
2017-07-06T12:05:16.250Z,3385
2017-07-06T12:06:26.548Z,1175
2017-07-06T12:07:36.868Z,3260
2017-07-06T12:08:46.524Z,3385
2017-07-06T12:09:57.065Z,1730
2017-07-06T12:11:07.331Z,2555
2017-07-06T12:12:17.645Z,2100
2017-07-06T12:13:27.605Z,3680
2017-07-06T12:14:37.256Z,1330
2017-07-06T12:15:47.492Z,3450
2017-07-06T12:16:57.149Z,1325
2017-07-06T12:18:07.128Z,1145
2017-07-06T12:19:17.434Z,1070
2017-07-06T12:20:27.730Z,1130
2017-07-06T12:21:38.298Z,1010
2017-07-06T12:22:48.586Z,930
2017-07-06T12:23:58.875Z,900
2017-07-06T12:25:09.170Z,925
2017-07-06T12:26:18.822Z,1040
2017-07-06T12:27:29.104Z,1030
2017-07-06T12:28:39.419Z,940
2017-07-06T12:29:49.379Z,955
2017-07-06T12:30:59.660Z,935
2017-07-06T12:32:09.975Z,1245
2017-07-06T12:33:20.546Z,2755
2017-07-06T12:34:30.825Z,1030
2017-07-06T12:35:41.136Z,1095
2017-07-06T12:36:51.107Z,3360
2017-07-06T12:38:01.079Z,2745
2017-07-06T12:39:11.632Z,3135
2017-07-06T12:40:21.927Z,1030
2017-07-06T12:41:31.911Z,1320
2017-07-06T12:42:42.192Z,1080
2017-07-06T12:43:51.834Z,975
2017-07-06T12:45:02.361Z,980
2017-07-06T12:46:12.645Z,1030
2017-07-06T12:47:22.303Z,1120
2017-07-06T12:48:32.601Z,3860
2017-07-06T12:49:42.904Z,3755
2017-07-06T12:50:53.481Z,3665
2017-07-06T12:52:02.813Z,3265
2017-07-06T12:53:13.083Z,3465
2017-07-06T12:54:23.412Z,2330
2017-07-06T12:55:33.711Z,3770
2017-07-06T12:56:44.262Z,3280
2017-07-06T12:57:54.585Z,3295
2017-07-06T12:59:04.933Z,3165
2017-07-06T13:00:14.596Z,3280
2017-07-06T13:01:24.615Z,3165
2017-07-06T13:02:35.170Z,3285
2017-07-06T13:03:45.507Z,2595
2017-07-06T13:04:55.746Z,2560
2017-07-06T13:06:05.724Z,1545
2017-07-06T13:07:16.003Z,1680
2017-07-06T13:08:26.549Z,2495
2017-07-06T13:09:36.852Z,2860
2017-07-06T13:10:47.198Z,2105
2017-07-06T13:11:57.185Z,2645
2017-07-06T13:13:07.184Z,1265
2017-07-06T13:14:17.732Z,1120
2017-07-06T13:15:28.038Z,1355
2017-07-06T13:16:37.991Z,2840
2017-07-06T13:17:47.986Z,1265
2017-07-06T13:18:58.285Z,3620
2017-07-06T13:20:08.827Z,3555
2017-07-06T13:21:19.125Z,2445
2017-07-06T13:22:29.399Z,3435
2017-07-06T13:23:39.372Z,3615
2017-07-06T13:24:49.662Z,1290
2017-07-06T13:26:00.205Z,940
2017-07-06T13:27:10.161Z,865
2017-07-06T13:28:20.444Z,820
2017-07-06T13:29:30.757Z,820
2017-07-06T13:30:41.030Z,850
2017-07-06T13:31:51.559Z,965
2017-07-06T13:33:01.576Z,3205
2017-07-06T13:34:11.253Z,3670
2017-07-06T13:35:21.573Z,3850
2017-07-06T13:36:31.894Z,3910
2017-07-06T13:37:42.413Z,1290
2017-07-06T13:38:51.775Z,1635
2017-07-06T13:40:02.053Z,1135
2017-07-06T13:41:12.330Z,1805
2017-07-06T13:42:22.687Z,1175
2017-07-06T13:43:32.939Z,1185
2017-07-06T13:44:43.253Z,2060
2017-07-06T13:45:53.252Z,3910
2017-07-06T13:47:03.555Z,4000
2017-07-06T13:48:13.850Z,3775
2017-07-06T13:49:24.100Z,3790
2017-07-06T13:50:34.400Z,3740
2017-07-06T13:51:44.387Z,3725
2017-07-06T13:52:54.710Z,3775
2017-07-06T13:54:04.073Z,1020
2017-07-06T13:55:14.666Z,920
2017-07-06T13:56:24.988Z,900
2017-07-06T13:57:34.973Z,940
2017-07-06T13:58:45.272Z,1015
2017-07-06T13:59:55.545Z,2665
2017-07-06T14:01:06.072Z,2730
2017-07-06T14:02:16.377Z,2995
2017-07-06T14:03:26.658Z,3130
2017-07-06T14:04:36.941Z,3180
2017-07-06T14:05:47.266Z,3245
2017-07-06T14:06:57.809Z,3215
2017-07-06T14:08:08.108Z,3160
2017-07-06T14:09:18.411Z,3150
2017-07-06T14:10:28.700Z,2925
2017-07-06T14:11:38.999Z,1105
2017-07-06T14:12:48.929Z,1635
2017-07-06T14:13:59.206Z,1010
2017-07-06T14:15:09.499Z,1275
2017-07-06T14:16:19.773Z,1990
2017-07-06T14:17:30.054Z,2945
2017-07-06T14:18:40.595Z,3065
2017-07-06T14:19:50.879Z,3240
2017-07-06T14:21:00.884Z,3345
2017-07-06T14:22:11.156Z,3430
2017-07-06T14:23:21.430Z,3370
2017-07-06T14:24:31.322Z,3110
2017-07-06T14:25:40.974Z,3090
2017-07-06T14:26:51.258Z,3050
2017-07-06T14:28:01.214Z,3125
2017-07-06T14:29:11.527Z,3175
2017-07-06T14:30:22.048Z,3100
2017-07-06T14:31:32.003Z,2870
2017-07-06T14:32:42.289Z,2700
2017-07-06T14:33:52.586Z,2575
2017-07-06T14:35:02.549Z,2530
2017-07-06T14:36:13.106Z,2575
2017-07-06T14:37:23.395Z,2500
2017-07-06T14:38:33.366Z,2290
2017-07-06T14:39:42.707Z,2380
2017-07-06T14:40:53.095Z,2440
2017-07-06T14:42:03.317Z,2715
2017-07-06T14:43:13.292Z,2930
2017-07-06T14:44:23.274Z,3045
2017-07-06T14:45:33.540Z,3020
2017-07-06T14:46:43.800Z,2920
2017-07-06T14:47:54.315Z,2720
2017-07-06T14:49:04.591Z,2760
2017-07-06T14:50:14.552Z,2935
2017-07-06T14:51:24.845Z,3080
2017-07-06T14:52:35.188Z,3150
2017-07-06T14:53:45.731Z,3050
2017-07-06T14:54:56.004Z,2930
2017-07-06T14:56:05.974Z,2915
2017-07-06T14:57:15.934Z,2820
2017-07-06T14:58:25.594Z,2775
2017-07-06T14:59:36.115Z,2870
2017-07-06T15:00:46.069Z,2885
2017-07-06T15:01:56.345Z,2905
2017-07-06T15:03:06.625Z,2885
2017-07-06T15:04:16.580Z,2840
2017-07-06T15:05:27.156Z,2765
2017-07-06T15:06:37.138Z,2705
2017-07-06T15:07:47.428Z,2785
2017-07-06T15:08:57.392Z,2930
2017-07-06T15:10:07.664Z,2900
2017-07-06T15:11:18.194Z,2805
2017-07-06T15:12:28.146Z,2765
2017-07-06T15:13:38.442Z,2765
2017-07-06T15:14:48.721Z,2730
2017-07-06T15:15:58.378Z,2695
2017-07-06T15:17:08.593Z,2665
2017-07-06T15:18:18.876Z,2605
2017-07-06T15:19:29.234Z,2500
2017-07-06T15:20:39.559Z,2520
2017-07-06T15:21:49.544Z,2570
2017-07-06T15:23:00.064Z,2455
2017-07-06T15:24:10.347Z,2260
2017-07-06T15:25:20.309Z,1325
2017-07-06T15:26:30.240Z,2530
2017-07-06T15:27:40.522Z,2635
2017-07-06T15:28:51.131Z,2535
2017-07-06T15:30:00.773Z,2510
2017-07-06T15:31:11.059Z,2635
2017-07-06T15:32:21.023Z,2755
2017-07-06T15:33:31.312Z,2530
2017-07-06T15:34:41.545Z,2400
2017-07-06T15:35:51.837Z,2455
2017-07-06T15:37:02.125Z,2535
2017-07-06T15:38:12.405Z,2575
2017-07-06T15:39:22.431Z,2520
2017-07-06T15:40:32.980Z,2430
2017-07-06T15:41:42.642Z,2445
2017-07-06T15:42:52.939Z,2385
2017-07-06T15:44:03.227Z,2315
2017-07-06T15:45:13.527Z,2305
2017-07-06T15:46:24.056Z,2280
2017-07-06T15:47:34.411Z,2280
2017-07-06T15:48:44.686Z,2245
2017-07-06T15:49:54.648Z,2260
2017-07-06T15:51:04.292Z,2320
2017-07-06T15:52:14.814Z,2295
2017-07-06T15:53:25.166Z,2245
2017-07-06T15:54:34.827Z,2365
2017-07-06T15:55:44.471Z,2340
2017-07-06T15:56:54.423Z,1670
2017-07-06T15:58:04.627Z,1910
2017-07-06T15:59:14.903Z,1230
2017-07-06T16:00:24.872Z,2145
2017-07-06T16:01:35.180Z,2040
2017-07-06T16:02:45.470Z,1995
2017-07-06T16:03:55.695Z,2000
2017-07-06T16:05:05.664Z,2050
2017-07-06T16:06:15.952Z,1930
2017-07-06T16:07:26.270Z,1975